Time;durP1;ratioP1;P1;durP2;ratioP2;P2;SDS_P1;SDS_P2;PMS_P1;PMS_P2;Temp;Humidity;BMP_temperature;BMP_pressure;BME280_temperature;BME280_humidity;BME280_pressure;Samples;Min_cycle;Max_cycle;Signal;HPM_P1;HPM_P2
2024/02/01 05:31:52;;;;;;;20.23;9.10;;;6.40;99.90;;;;;;7616309;19;20899;-71
2024/02/01 05:34:25;;;;;;;23.92;9.88;;;6.30;99.90;;;;;;7615697;19;20031;-72
2024/02/01 05:36:57;;;;;;;17.43;9.60;;;6.40;99.90;;;;;;7622416;19;20014;-72
2024/02/01 05:39:29;;;;;;;14.32;8.15;;;6.40;99.90;;;;;;7611223;19;20018;-72
2024/02/01 05:42:06;;;;;;;19.65;9.25;;;6.50;99.90;;;;;;7616758;19;20018;-73
2024/02/01 05:44:40;;;;;;;25.55;9.10;;;6.60;99.90;;;;;;7608121;19;20011;-73
2024/02/01 05:47:12;;;;;;;16.73;9.00;;;6.70;99.90;;;;;;7627473;19;20022;-73
2024/02/01 05:49:47;;;;;;;19.08;7.53;;;6.80;99.90;;;;;;7616368;19;21145;-75
2024/02/01 05:52:20;;;;;;;19.45;8.02;;;6.80;99.90;;;;;;7623899;19;20783;-74
2024/02/01 05:54:55;;;;;;;19.92;9.27;;;6.80;99.90;;;;;;7625656;19;20014;-74
2024/02/01 05:57:28;;;;;;;19.45;8.85;;;6.90;99.90;;;;;;7633404;19;20113;-74
2024/02/01 06:00:02;;;;;;;17.83;8.70;;;6.80;99.90;;;;;;7622468;19;20090;-75
2024/02/01 06:02:36;;;;;;;19.02;8.90;;;6.80;99.90;;;;;;7626763;19;20034;-73
2024/02/01 06:05:10;;;;;;;16.53;9.23;;;6.90;99.90;;;;;;7617076;19;20015;-73
2024/02/01 06:07:42;;;;;;;22.17;10.20;;;6.90;99.90;;;;;;7610285;19;20287;-73
2024/02/01 06:10:15;;;;;;;17.88;8.60;;;6.90;99.90;;;;;;7626594;19;20048;-72
2024/02/01 06:12:47;;;;;;;21.53;8.70;;;6.90;99.90;;;;;;7630313;19;20015;-73
2024/02/01 06:15:19;;;;;;;18.88;8.65;;;6.90;99.90;;;;;;7629248;19;20015;-73
2024/02/01 06:17:52;;;;;;;21.67;8.63;;;7.00;99.90;;;;;;7619574;19;20014;-72
2024/02/01 06:20:24;;;;;;;21.25;8.27;;;7.00;99.90;;;;;;7610573;19;20748;-72
2024/02/01 06:22:57;;;;;;;15.13;8.85;;;7.00;99.90;;;;;;7611874;19;20626;-73
2024/02/01 06:25:30;;;;;;;16.10;8.57;;;7.00;99.90;;;;;;7632074;19;20513;-72
2024/02/01 06:28:02;;;;;;;19.23;8.50;;;7.10;99.90;;;;;;7628823;19;20483;-72
2024/02/01 06:30:37;;;;;;;19.88;10.02;;;7.00;99.90;;;;;;7614094;19;20014;-72
2024/02/01 06:33:10;;;;;;;24.80;15.25;;;7.00;99.90;;;;;;7611674;19;20002;-73
2024/02/01 06:35:43;;;;;;;21.67;10.98;;;6.90;99.90;;;;;;7606907;19;20017;-73
2024/02/01 06:38:22;;;;;;;19.23;8.48;;;6.90;99.90;;;;;;7611029;19;20014;-72
2024/02/01 06:41:17;;;;;;;15.98;7.93;;;6.90;99.90;;;;;;7628568;19;20545;-72
2024/02/01 06:47:05;;;;;;;16.42;7.55;;;7.00;99.90;;;;;;7609619;19;20943;-72
2024/02/01 06:52:49;;;;;;;20.00;7.47;;;7.20;99.90;;;;;;7600871;19;20029;-72
2024/02/01 06:55:36;;;;;;;15.68;7.22;;;7.20;99.90;;;;;;7606800;19;20858;-73
2024/02/01 06:58:15;;;;;;;17.35;7.82;;;7.30;99.90;;;;;;7591940;19;20096;-73
2024/02/01 07:06:06;;;;;;;14.95;7.65;;;7.30;99.90;;;;;;7607310;19;20491;-72
2024/02/01 07:13:58;;;;;;;19.80;7.95;;;7.50;99.90;;;;;;7603219;19;20011;-72
2024/02/01 07:16:53;;;;;;;15.40;7.82;;;7.60;99.90;;;;;;7604059;19;20029;-72
2024/02/01 07:19:52;;;;;;;14.93;7.22;;;7.60;99.90;;;;;;7605277;19;20018;-72
2024/02/01 07:22:35;;;;;;;16.25;7.90;;;7.60;99.90;;;;;;7598773;19;20010;-71
2024/02/01 07:25:23;;;;;;;15.27;7.47;;;7.70;99.90;;;;;;7605140;19;20516;-72
2024/02/01 16:24:53;;;;;;;15.45;9.35;;;6.40;99.90;;;;;;7618226;19;20365;-75
2024/02/01 16:27:56;;;;;;;12.55;8.65;;;6.40;99.90;;;;;;7599910;19;21071;-76
2024/02/01 16:30:54;;;;;;;14.10;8.93;;;6.50;99.90;;;;;;7607089;19;20040;-75
2024/02/01 16:33:31;;;;;;;14.45;9.45;;;6.60;99.90;;;;;;7583082;19;20018;-73
2024/02/01 16:36:09;;;;;;;15.18;8.85;;;6.60;99.90;;;;;;7597384;19;20010;-74
2024/02/01 16:38:43;;;;;;;16.75;10.20;;;6.70;99.90;;;;;;7604074;19;21404;-74
2024/02/01 16:41:36;;;;;;;14.30;8.85;;;6.80;99.90;;;;;;7560722;19;20021;-75
2024/02/01 16:44:36;;;;;;;16.20;7.95;;;6.80;99.90;;;;;;7626891;19;20010;-75
2024/02/01 16:47:15;;;;;;;13.20;8.32;;;6.90;99.90;;;;;;7597209;19;20021;-74
2024/02/01 16:49:47;;;;;;;16.85;9.25;;;7.00;99.90;;;;;;7577268;19;20033;-74
2024/02/01 16:52:52;;;;;;;15.55;10.10;;;7.00;99.90;;;;;;7575610;19;20021;-76
2024/02/01 16:55:37;;;;;;;14.13;9.90;;;7.00;99.90;;;;;;7601631;19;20010;-75
2024/02/01 16:58:43;;;;;;;14.90;10.60;;;7.00;99.90;;;;;;7578993;19;20037;-74
2024/02/01 17:01:24;;;;;;;16.45;10.02;;;6.90;99.90;;;;;;7584179;19;20393;-74
2024/02/01 17:03:58;;;;;;;19.08;10.43;;;6.90;99.90;;;;;;7576395;19;20022;-73
2024/02/01 17:06:34;;;;;;;16.10;9.77;;;6.90;99.90;;;;;;7575010;19;20026;-73
2024/02/01 17:09:12;;;;;;;24.15;11.75;;;6.90;99.90;;;;;;7596186;19;20018;-73
2024/02/01 17:11:47;;;;;;;22.65;12.05;;;6.90;99.90;;;;;;7614869;19;20625;-72
2024/02/01 17:14:22;;;;;;;24.13;13.10;;;7.00;99.90;;;;;;7617785;19;20010;-72
2024/02/01 17:17:13;;;;;;;15.60;10.75;;;7.00;99.90;;;;;;7621740;19;20630;-72
2024/02/01 17:19:46;;;;;;;23.00;9.80;;;7.00;99.90;;;;;;7607910;19;21457;-73
2024/02/01 17:22:22;;;;;;;14.60;8.52;;;7.00;99.90;;;;;;7607098;19;20014;-73
2024/02/01 17:24:56;;;;;;;11.95;8.00;;;7.10;99.90;;;;;;7627507;19;20014;-72
2024/02/01 17:27:34;;;;;;;10.73;7.88;;;7.00;99.90;;;;;;7611951;19;20578;-72
2024/02/01 17:30:45;;;;;;;15.13;7.85;;;7.00;99.90;;;;;;7624959;19;20006;-73
2024/02/01 17:33:50;;;;;;;16.50;8.90;;;7.10;99.90;;;;;;7617746;19;20022;-75
2024/02/01 17:36:23;;;;;;;14.18;8.65;;;7.00;99.90;;;;;;7590796;19;20797;-74
2024/02/01 17:39:01;;;;;;;12.27;7.88;;;6.90;99.90;;;;;;7598819;19;20092;-74
2024/02/01 17:41:35;;;;;;;14.50;9.82;;;7.00;99.90;;;;;;7602453;19;20098;-74
2024/02/01 17:44:27;;;;;;;12.68;8.85;;;7.00;99.90;;;;;;7601547;19;20325;-74
2024/02/01 17:47:05;;;;;;;13.85;8.80;;;7.00;99.90;;;;;;7601567;19;20025;-72
2024/02/01 17:49:41;;;;;;;17.33;9.73;;;6.90;99.90;;;;;;7594791;19;20026;-72
2024/02/01 17:52:40;;;;;;;17.73;10.25;;;6.90;99.90;;;;;;7600858;19;20082;-74
2024/02/01 17:55:22;;;;;;;21.95;11.27;;;7.00;99.90;;;;;;7600276;19;20066;-72
2024/02/01 17:57:56;;;;;;;20.17;12.43;;;7.00;99.90;;;;;;7595776;19;20003;-72
2024/02/01 18:00:29;;;;;;;20.67;12.95;;;7.00;99.90;;;;;;7594270;19;20060;-72
2024/02/01 18:03:04;;;;;;;28.50;18.08;;;7.00;99.90;;;;;;7572321;19;20018;-73
2024/02/01 18:05:37;;;;;;;25.67;16.17;;;7.10;99.90;;;;;;7581513;19;20842;-75
2024/02/01 18:08:12;;;;;;;32.92;18.30;;;7.10;99.90;;;;;;7601796;19;20026;-75
2024/02/01 18:10:49;;;;;;;26.48;16.45;;;7.00;99.90;;;;;;7591341;19;20044;-74
2024/02/01 18:13:22;;;;;;;22.25;15.48;;;7.10;99.90;;;;;;7573545;19;20018;-72
2024/02/01 18:16:01;;;;;;;25.95;16.52;;;7.10;99.90;;;;;;7588936;19;20982;-74
2024/02/01 18:18:35;;;;;;;35.17;18.25;;;7.20;99.90;;;;;;7564715;19;20022;-75
2024/02/01 18:21:16;;;;;;;32.90;18.75;;;7.10;99.90;;;;;;7595369;19;20015;-74
2024/02/01 18:23:50;;;;;;;36.03;19.70;;;7.10;99.90;;;;;;7590752;19;20022;-74
2024/02/01 18:26:22;;;;;;;38.60;22.25;;;7.10;99.90;;;;;;7582268;19;20097;-74
2024/02/01 18:28:56;;;;;;;53.47;28.10;;;7.10;99.90;;;;;;7580058;19;20021;-74
2024/02/01 18:31:29;;;;;;;;;;;7.10;99.90;;;;;;7587988;19;20010;-72
2024/02/01 18:34:04;;;;;;;23.48;14.02;;;7.10;99.90;;;;;;7581712;19;19971;-75
2024/02/01 18:36:38;;;;;;;24.63;15.00;;;7.10;99.90;;;;;;7578447;19;20019;-74
2024/02/01 18:39:21;;;;;;;30.67;16.77;;;7.10;99.90;;;;;;7591344;19;20349;-72
2024/02/01 18:41:57;;;;;;;32.00;15.30;;;7.00;99.90;;;;;;7552441;19;20074;-74
2024/02/01 18:44:30;;;;;;;31.52;16.80;;;7.00;99.90;;;;;;7578273;19;20025;-73
2024/02/01 18:47:06;;;;;;;35.42;17.65;;;7.00;99.90;;;;;;7566075;19;21019;-73
2024/02/01 18:49:39;;;;;;;34.95;19.25;;;7.00;99.90;;;;;;7566256;19;25073;-73
2024/02/01 18:52:13;;;;;;;;;;;7.00;99.90;;;;;;7574387;19;20014;-74
2024/02/01 18:54:45;;;;;;;31.37;15.83;;;7.00;99.90;;;;;;7591838;19;20144;-74
2024/02/01 18:57:30;;;;;;;36.58;18.33;;;7.00;99.90;;;;;;7598417;19;20023;-74
2024/02/01 19:00:09;;;;;;;29.30;16.25;;;6.90;99.90;;;;;;7591928;19;20014;-75
2024/02/01 19:02:44;;;;;;;28.85;16.23;;;7.00;99.90;;;;;;7600488;19;20885;-74
2024/02/01 19:05:17;;;;;;;37.88;24.33;;;7.00;99.90;;;;;;7597826;19;20023;-74
2024/02/01 19:07:56;;;;;;;36.97;22.50;;;7.00;99.90;;;;;;7591250;19;20040;-74
2024/02/01 19:10:39;;;;;;;29.02;17.58;;;7.00;99.90;;;;;;7590951;19;20783;-74
2024/02/01 19:13:31;;;;;;;;;;;7.00;99.90;;;;;;7597819;19;20019;-74
2024/02/01 19:16:03;;;;;;;27.98;16.02;;;7.00;99.90;;;;;;7590302;19;19925;-74
2024/02/01 19:18:38;;;;;;;25.30;16.08;;;7.00;99.90;;;;;;7593867;19;20082;-74
2024/02/01 19:21:13;;;;;;;23.85;14.60;;;6.90;99.90;;;;;;7590574;19;20015;-74
2024/02/01 19:23:45;;;;;;;21.65;13.82;;;6.90;99.90;;;;;;7592811;19;20015;-74
2024/02/01 19:26:19;;;;;;;27.13;16.45;;;6.90;99.90;;;;;;7597149;19;20043;-74
2024/02/01 19:28:57;;;;;;;34.60;18.27;;;6.90;99.90;;;;;;7570883;19;20572;-74
2024/02/01 19:31:29;;;;;;;32.83;18.38;;;6.90;99.90;;;;;;7593841;19;20029;-74
2024/02/01 19:34:03;;;;;;;32.35;18.80;;;6.90;99.90;;;;;;7594891;19;20022;-74
2024/02/01 19:36:36;;;;;;;31.88;16.63;;;6.90;99.90;;;;;;7581243;19;20389;-75
2024/02/01 19:39:25;;;;;;;28.35;17.20;;;6.90;99.90;;;;;;7589237;19;20041;-75
2024/02/01 19:41:57;;;;;;;26.75;15.48;;;6.90;99.90;;;;;;7585672;19;20377;-75
2024/02/01 19:44:32;;;;;;;36.53;20.48;;;6.90;99.90;;;;;;7592066;19;20025;-76
2024/02/01 19:47:04;;;;;;;28.08;19.25;;;6.90;99.90;;;;;;7586849;19;20026;-74
2024/02/01 19:49:37;;;;;;;31.63;19.65;;;6.90;99.90;;;;;;7591822;19;20022;-74
2024/02/01 19:52:09;;;;;;;31.15;20.38;;;6.90;99.90;;;;;;7596014;19;20025;-74
2024/02/01 19:54:44;;;;;;;40.30;24.08;;;6.90;99.90;;;;;;7538411;19;20014;-73
2024/02/01 19:57:20;;;;;;;42.72;24.65;;;6.90;99.90;;;;;;7564896;19;20030;-73
2024/02/01 19:59:52;;;;;;;48.28;26.83;;;6.90;99.90;;;;;;7574113;19;20772;-74
2024/02/01 20:02:28;;;;;;;51.03;28.13;;;6.90;99.90;;;;;;7579754;19;20125;-74
2024/02/01 20:05:00;;;;;;;42.55;22.48;;;6.90;99.90;;;;;;7550705;19;21545;-73
2024/02/01 20:07:33;;;;;;;33.70;20.03;;;6.80;99.90;;;;;;7536085;19;20525;-74
2024/02/01 20:10:05;;;;;;;41.70;22.27;;;6.80;99.90;;;;;;7561038;19;20275;-73
2024/02/01 20:12:39;;;;;;;29.48;16.77;;;6.80;99.90;;;;;;7565295;19;20025;-73
2024/02/01 20:15:11;;;;;;;35.70;17.50;;;6.80;99.90;;;;;;7572549;19;20010;-75
2024/02/01 20:17:43;;;;;;;36.03;19.35;;;6.80;99.90;;;;;;7554483;19;20295;-74
2024/02/01 20:20:23;;;;;;;31.23;15.77;;;6.80;99.90;;;;;;7568842;19;20026;-73
2024/02/01 20:22:56;;;;;;;27.85;15.70;;;6.80;99.90;;;;;;7554383;19;20018;-73
2024/02/01 20:25:29;;;;;;;26.77;16.03;;;6.80;99.90;;;;;;7565616;19;20018;-72
2024/02/01 20:28:03;;;;;;;27.40;15.50;;;6.90;99.90;;;;;;7566513;19;20416;-73
2024/02/01 20:30:35;;;;;;;24.88;15.15;;;6.90;99.90;;;;;;7561339;19;20626;-75
2024/02/01 20:33:08;;;;;;;23.75;14.20;;;6.90;99.90;;;;;;7569670;19;20756;-74
2024/02/01 20:35:41;;;;;;;23.20;14.27;;;6.90;99.90;;;;;;7583402;19;20025;-73
2024/02/01 20:38:15;;;;;;;;;;;6.90;99.90;;;;;;7570204;19;25344;-73
2024/02/01 20:40:53;;;;;;;21.88;13.85;;;6.90;99.90;;;;;;7554985;19;19930;-73
2024/02/01 20:43:25;;;;;;;22.95;14.43;;;6.80;99.90;;;;;;7566053;19;20014;-74
2024/02/01 20:45:58;;;;;;;23.85;15.40;;;6.80;99.90;;;;;;7542150;19;20010;-76
